My Meet Scores
Alexis Mattea, Flipstar Gymnastics Academy - MyMeetScores.com
Top100 | Top Teams | Upcoming Meets | Completed Meets | Latest | Add Scores | Help| Support | Bookmark and Share

Alexis Mattea, Flipstar Gymnastics Academy
Personal Bests
LevelVault BarsBeamFloorAA
8.9507.200 7.4008.07531.625
49.7259.250 9.0259.10036.825
59.5509.150 9.1509.45037.250
69.2758.400 8.4508.90034.250
Meet Scores
Date Meet Team Session Level Division Vault Bars Beam Floor AA
2012-11-09 2012 Illinois Judges Cup Flipstar Gymnastics Academy 5A 6 12+ 8.900 5 7.350 20 8.025 15 7.850 18 32.125 17
2012-03-16 2012 Illinois Level 6, 7 State Championships Flipstar Gymnastics Academy 4 6 Sr.C 9.275 1 7.800 19T 8.075 23 8.900 14T 34.050 19
2012-02-25 Midwest Open 2012 Flipstar Gymnastics Academy 5B 6 Lvl 6: 12 & up 9.200 5 8.400 12 7.950 20 8.700 10 34.250 11
2012-02-10 IGI Chicago Style Gymnastics Flipstar Gymnastics Academy 531 6 12 & Over 8.725 17 7.800 30 8.350 31 8.375 18 33.250 24
2012-01-28 2012 King Arthur Invitational Flipstar Gymnastics Academy 8 6 Sr.B 9.225 2 7.800 13 8.350 10 8.575 7 33.950 10
2012-01-06 Crossroads Classic Flipstar Gymnastics Academy All Sessions Combined 6 SR 9.050 5 7.600 9 8.100 11 8.250 12 33.000 10
2011-12-02 2011 Ultimate Wish Classic Flipstar Gymnastics Academy 8 6 Sr. 9.000 6 7.875 13 8.450 15 8.400 13 33.725 14
2011-11-11 2011 Illinois Judges Cup Flipstar Gymnastics Academy 7A 6 11-12 9.000 5 7.850 20 6.750 33 8.300 26 31.900 26
2011-04-01 2011 Illinois Level 5 State Meet Flipstar Gymnastics Academy 4 5 Sr.B 9.500 1 9.150 11 9.150 8 9.450 6 37.250 5
2011-03-04 Flip'r Meet Flipstar Gymnastics Academy 6 5 11+ 9.425 1 8.175 15 8.400 13 8.725 12 34.725 12
2011-02-26 Midwest Open Flipstar Gymnastics Academy 2A 5 11 8.825 4 9.150 7 9.075 8 8.800 4 35.850 6
2011-02-19 Big Dream Classic Flipstar Gymnastics Academy 4B 5 11yrs & up 9.275 2T 9.025 15 8.850 12T 8.975 13 36.125 7
2011-02-11 IGI Chicago Style Gymnastics Meet Flipstar Gymnastics Academy 632 5 11 & Over 9.300 1T 8.600 16T 9.000 15 9.175 4T 36.075 5
2011-01-08 Crossroads Classic Flipstar Gymnastics Academy 2A 5 Sr B 9.050 2T 8.750 8 9.125 5 8.650 6 35.575 4
2010-12-03 Make a Wish Flipstar Gymnastics Academy 10 5 10-11 9.100 5 8.800 12T 9.075 17 8.350 20T 35.325 10
2010-04-23 2010 Illinois Level 5 State Championships Flipstar Gymnastics Academy 5 Jr.C 9.550 3 8.425 23 7.750 30 8.800 22 34.525 26
2010-02-27 Midwest Open Flipstar Gymnastics Academy 3A 5 10 8.850 12 8.750 12 8.300 20 8.425 16 34.325 16
2010-02-20 BIG Dream Classic 2010 Flipstar Gymnastics Academy 2A 5 10 9.150 3 8.675 16 7.800 30 8.800 20 34.425 21
2010-02-12 IGI Chicago Style Gymnastics Meet Flipstar Gymnastics Academy 621 5 10 Yr Olds 9.225 1T 8.300 16 8.800 10 8.600 9 34.925 10
2010-01-30 The King Arthur Invitational 2010 Flipstar Gymnastics Academy 5 SrA 8.850 5 7.800 18 8.650 14 8.500 15 33.800 15
2010-01-22 Bravo Classic 2010 Flipstar Gymnastics Academy 3B 5 10 8.500 6 3.000 12 8.300 7 8.600 8 28.400 12
2009-12-04 Ultimate Wish Classic Flipstar Gymnastics Academy 9 5 Ch9-11 9.175 3 8.100 30 8.725 25 8.550 18T 34.550 13
2009-11-13 2009 North Judges Cup Flipstar Gymnastics Academy 6A 5 10 8.550 4 8.350 6 8.100 11 8.150 11 33.150 9
2009-03-13 2009 Illinois Level 4 State Championships Gym-KineticsSportsComplex 4 JrD 9.725 2 9.225 6 8.650 15 8.875 15 36.475 7
2009-02-13 For Love or Money Gym Kinetics Sports Complex LoveGym 4 9 9.450 6 9.250 21T 9.025 41T 9.100 38T 36.825 18T
2009-01-17 St. Jude Benefit Meet Gym Kinetics Sports Complex 10 4 Lvl4:9-11 9.225 8 9.100 13 8.650 19 8.875 13 35.850 14
2008-12-13 St Nick Invite Gym Kinetics Sports Complex 5 4 All 9.100 16 8.075 62 8.675 40 8.500 58 34.350 40
2008-11-22 Thanksgiving Classic Gym Kinetics Sports Complex 6 4 Ch 9+ 9.400 2 7.775 23 8.650 7 8.900 5 34.725 11
2008-11-15 Thanks To You Co~Ed Classic Gym Kinetics Sports Complex 2 4 9-11yrs. 9.000 6 8.700 9 9.000 2 8.900 3 35.600 3
2008-02-09 For Love or Money 2008 Gym Kinetics Sports Complex LoveGym 4 8 9.375 23T 7.650 100T 7.700 96 8.775 77T 33.500 87
2008-02-09 For Love or Money 2008 Gym Kinetics Sports Complex MoneyGym 4 8 0.000 1T 0.000 1T 0.000 1T 0.000 1T 0.000 1T

www.lazysuits.com